createdAt,value
2018-12-01T00:00:00.153Z,6.08
2018-12-01T00:01:00.109Z,5.98
2018-12-01T00:02:00.076Z,6.18
2018-12-01T00:03:00.029Z,5.79
2018-12-01T00:03:59.991Z,5.98
2018-12-01T00:04:59.945Z,5.98
2018-12-01T00:05:59.904Z,5.88
2018-12-01T00:06:59.863Z,5.88
2018-12-01T00:07:59.824Z,5.98
2018-12-01T00:08:59.779Z,5.88
2018-12-01T00:09:59.738Z,5.98
2018-12-01T00:10:59.697Z,5.88
2018-12-01T00:11:59.657Z,6.07
2018-12-01T00:12:59.613Z,6.17
2018-12-01T00:13:59.572Z,6.17
2018-12-01T00:14:59.532Z,6.37
2018-12-01T00:15:59.490Z,6.37
2018-12-01T00:16:59.449Z,6.37
2018-12-01T00:17:59.407Z,6.37
2018-12-01T00:18:59.366Z,6.27
2018-12-01T00:19:59.324Z,6.17
2018-12-01T00:20:59.281Z,6.17
2018-12-01T00:21:59.241Z,6.27
2018-12-01T00:22:59.200Z,6.07
2018-12-01T00:23:59.161Z,6.16
2018-12-01T00:24:59.116Z,6.46
2018-12-01T00:25:59.075Z,6.46
2018-12-01T00:26:59.034Z,6.46
2018-12-01T00:27:58.991Z,6.46
2018-12-01T00:28:58.952Z,6.37
2018-12-01T00:29:59.225Z,6.37
2018-12-01T00:30:58.867Z,6.16
2018-12-01T00:31:58.826Z,6.37
2018-12-01T00:32:58.783Z,6.07
2018-12-01T00:33:58.744Z,6.37
2018-12-01T00:34:58.699Z,6.27
2018-12-01T00:35:58.660Z,6.37
2018-12-01T00:36:58.617Z,6.66
2018-12-01T00:37:58.575Z,6.66
2018-12-01T00:38:58.534Z,6.56
2018-12-01T00:39:58.492Z,6.16
2018-12-01T00:40:58.449Z,6.16
2018-12-01T00:41:58.407Z,6.16
2018-12-01T00:42:58.369Z,6.16
2018-12-01T00:43:58.324Z,6.66
2018-12-01T00:44:58.283Z,6.66
2018-12-01T00:45:58.241Z,6.16
2018-12-01T00:46:58.198Z,6.46
2018-12-01T00:47:58.157Z,6.37
2018-12-01T00:48:58.116Z,6.37
2018-12-01T00:49:58.075Z,6.17
2018-12-01T00:50:58.035Z,6.46
2018-12-01T00:51:57.991Z,6.46
2018-12-01T00:52:57.947Z,6.85
2018-12-01T00:53:57.907Z,6.56
2018-12-01T00:54:57.865Z,6.46
2018-12-01T00:55:57.824Z,6.27
2018-12-01T00:56:57.786Z,6.46
2018-12-01T00:57:57.740Z,6.56
2018-12-01T00:58:57.698Z,6.37
2018-12-01T00:59:57.656Z,6.27
2018-12-01T01:00:57.616Z,6.27
2018-12-01T01:01:57.572Z,6.17
2018-12-01T01:02:57.531Z,6.46
2018-12-01T01:03:57.489Z,6.46
2018-12-01T01:04:57.447Z,6.27
2018-12-01T01:05:57.406Z,6.37
2018-12-01T01:06:57.364Z,6.56
2018-12-01T01:07:57.323Z,6.47
2018-12-01T01:08:57.280Z,6.37
2018-12-01T01:09:57.238Z,6.47
2018-12-01T01:10:57.197Z,6.37
2018-12-01T01:11:57.156Z,6.37
2018-12-01T01:12:57.113Z,6.27
2018-12-01T01:13:57.072Z,6.27
2018-12-01T01:14:57.031Z,6.37
2018-12-01T01:15:56.989Z,6.27
2018-12-01T01:16:56.946Z,6.27
2018-12-01T01:17:56.905Z,6.17
2018-12-01T01:18:56.863Z,5.98
2018-12-01T01:19:56.822Z,6.27
2018-12-01T01:20:56.781Z,6.27
2018-12-01T01:21:56.739Z,6.17
2018-12-01T01:22:56.702Z,6.17
2018-12-01T01:23:56.656Z,6.17
2018-12-01T01:24:56.613Z,6.07
2018-12-01T01:25:56.575Z,5.98
2018-12-01T01:26:56.530Z,6.27
2018-12-01T01:27:56.490Z,6.27
2018-12-01T01:28:56.446Z,5.98
2018-12-01T01:29:56.406Z,5.79
2018-12-01T01:30:56.365Z,5.98
2018-12-01T01:31:56.326Z,5.88
2018-12-01T01:32:56.283Z,5.88
2018-12-01T01:33:56.241Z,5.79
2018-12-01T01:34:56.199Z,5.79
2018-12-01T01:35:56.158Z,5.98
2018-12-01T01:36:56.117Z,5.98
2018-12-01T01:37:56.075Z,5.88
2018-12-01T01:38:56.032Z,5.79
2018-12-01T01:39:55.993Z,5.98
2018-12-01T01:40:55.949Z,5.79
2018-12-01T01:41:55.907Z,6.18
2018-12-01T01:42:55.868Z,5.79
2018-12-01T01:43:55.828Z,6.08
2018-12-01T01:44:55.784Z,6.08
2018-12-01T01:45:55.743Z,6.08
2018-12-01T01:46:55.702Z,6.08
2018-12-01T01:47:55.660Z,6.08
2018-12-01T01:48:55.619Z,5.98
2018-12-01T01:49:55.579Z,5.98
2018-12-01T01:50:55.540Z,5.98
2018-12-01T01:51:55.497Z,5.98
2018-12-01T01:52:55.455Z,6.28
2018-12-01T01:53:55.413Z,6.18
2018-12-01T01:54:55.373Z,5.98
2018-12-01T01:55:55.332Z,6.08
2018-12-01T01:56:55.290Z,6.08
2018-12-01T01:57:55.249Z,6.08
2018-12-01T01:58:55.208Z,5.98
2018-12-01T01:59:55.166Z,5.88
2018-12-01T02:00:55.126Z,5.79
2018-12-01T02:01:55.133Z,5.88
2018-12-01T02:02:55.042Z,5.88
2018-12-01T02:03:55.002Z,5.79
2018-12-01T02:04:54.962Z,5.88
2018-12-01T02:05:54.918Z,5.88
2018-12-01T02:06:54.882Z,6.27
2018-12-01T02:07:54.836Z,6.07
2018-12-01T02:08:54.796Z,6.17
2018-12-01T02:09:54.754Z,6.17
2018-12-01T02:10:54.713Z,6.17
2018-12-01T02:11:54.672Z,5.98
2018-12-01T02:12:54.633Z,6.37
2018-12-01T02:13:54.588Z,6.37
2018-12-01T02:14:54.592Z,6.47
2018-12-01T02:15:54.507Z,6.37
2018-12-01T02:16:54.465Z,6.47
2018-12-01T02:17:54.424Z,6.56
2018-12-01T02:18:54.382Z,6.27
2018-12-01T02:19:54.344Z,6.27
2018-12-01T02:20:54.299Z,6.37
2018-12-01T02:21:54.257Z,6.07
2018-12-01T02:22:54.218Z,6.17
2018-12-01T02:23:54.176Z,6.17
2018-12-01T02:24:54.134Z,6.27
2018-12-01T02:25:54.092Z,6.27
2018-12-01T02:26:54.051Z,6.07
2018-12-01T02:27:54.009Z,6.66
2018-12-01T02:28:53.967Z,6.56
2018-12-01T02:29:53.979Z,6.56
2018-12-01T02:30:53.885Z,6.46
2018-12-01T02:31:53.844Z,6.07
2018-12-01T02:32:53.804Z,6.46
2018-12-01T02:33:53.768Z,6.07
2018-12-01T02:34:53.720Z,6.46
2018-12-01T02:35:53.679Z,6.46
2018-12-01T02:36:53.636Z,6.27
2018-12-01T02:37:54.949Z,6.27
2018-12-01T02:38:53.554Z,6.37
2018-12-01T02:39:53.562Z,6.46
2018-12-01T02:40:53.471Z,6.37
2018-12-01T02:41:53.429Z,6.27
2018-12-01T02:42:53.389Z,6.27
2018-12-01T02:43:53.348Z,6.37
2018-12-01T02:44:53.303Z,6.27
2018-12-01T02:45:53.262Z,6.17
2018-12-01T02:46:53.221Z,6.17
2018-12-01T02:47:53.181Z,6.37
2018-12-01T02:48:53.136Z,6.56
2018-12-01T02:49:53.096Z,6.85
2018-12-01T02:50:53.055Z,6.85
2018-12-01T02:51:53.013Z,6.66
2018-12-01T02:52:52.972Z,6.37
2018-12-01T02:53:52.930Z,6.56
2018-12-01T02:54:52.888Z,6.46
2018-12-01T02:55:52.846Z,6.46
2018-12-01T02:56:52.804Z,6.66
2018-12-01T02:57:52.763Z,6.56
2018-12-01T02:58:52.721Z,6.56
2018-12-01T02:59:52.680Z,6.46
2018-12-01T03:00:53.004Z,6.56
2018-12-01T03:01:52.916Z,6.56
2018-12-01T03:02:52.554Z,6.46
2018-12-01T03:03:52.513Z,6.56
2018-12-01T03:04:52.472Z,6.37
2018-12-01T03:05:52.429Z,6.46
2018-12-01T03:06:52.386Z,6.37
2018-12-01T03:07:52.346Z,6.37
2018-12-01T03:08:52.304Z,6.37
2018-12-01T03:09:52.262Z,6.46
2018-12-01T03:10:52.220Z,6.37
2018-12-01T03:11:52.180Z,6.46
2018-12-01T03:12:52.137Z,6.37
2018-12-01T03:13:52.096Z,6.46
2018-12-01T03:14:52.054Z,6.37
2018-12-01T03:15:52.013Z,6.37
2018-12-01T03:16:51.970Z,6.46
2018-12-01T03:17:51.933Z,6.46
2018-12-01T03:18:51.887Z,6.66
2018-12-01T03:19:51.845Z,6.66
2018-12-01T03:20:51.802Z,6.76
2018-12-01T03:21:51.761Z,6.85
2018-12-01T03:22:51.719Z,6.66
2018-12-01T03:23:51.677Z,6.85
2018-12-01T03:24:51.636Z,6.76
2018-12-01T03:25:51.595Z,6.66
2018-12-01T03:26:51.553Z,6.76
2018-12-01T03:27:51.515Z,6.85
2018-12-01T03:28:51.471Z,6.95
2018-12-01T03:29:51.426Z,6.76
2018-12-01T03:30:51.390Z,6.76
2018-12-01T03:31:51.345Z,6.85
2018-12-01T03:32:51.313Z,6.56
2018-12-01T03:33:51.264Z,6.75
2018-12-01T03:34:51.217Z,6.65
2018-12-01T03:35:51.176Z,7.04
2018-12-01T03:36:51.134Z,6.85
2018-12-01T03:37:51.092Z,6.75
2018-12-01T03:38:51.048Z,6.85
2018-12-01T03:39:51.008Z,6.95
2018-12-01T03:40:50.965Z,6.75
2018-12-01T03:41:50.924Z,6.75
2018-12-01T03:42:50.882Z,7.04
2018-12-01T03:43:50.843Z,6.75
2018-12-01T03:44:50.796Z,6.85
2018-12-01T03:45:50.757Z,6.65
2018-12-01T03:46:50.714Z,6.75
2018-12-01T03:47:50.672Z,6.65
2018-12-01T03:48:50.629Z,6.85
2018-12-01T03:49:50.587Z,6.75
2018-12-01T03:50:50.551Z,6.65
2018-12-01T03:51:50.504Z,6.95
2018-12-01T03:52:50.461Z,6.75
2018-12-01T03:53:50.469Z,6.75
2018-12-01T03:54:50.378Z,6.95
2018-12-01T03:55:50.336Z,6.75
2018-12-01T03:56:50.293Z,6.85
2018-12-01T03:57:50.251Z,6.85
2018-12-01T03:58:50.210Z,6.95
2018-12-01T03:59:50.170Z,6.75
2018-12-01T04:00:50.129Z,7.05
2018-12-01T04:01:50.083Z,6.85
2018-12-01T04:02:50.042Z,6.76
2018-12-01T04:03:50.005Z,6.95
2018-12-01T04:04:49.957Z,7.04
2018-12-01T04:05:49.915Z,6.95
2018-12-01T04:06:49.874Z,6.95
2018-12-01T04:07:49.832Z,6.95
2018-12-01T04:08:49.789Z,6.95
2018-12-01T04:09:49.754Z,6.85
2018-12-01T04:10:49.706Z,6.95
2018-12-01T04:11:49.664Z,6.95
2018-12-01T04:12:49.622Z,6.75
2018-12-01T04:13:49.579Z,6.75
2018-12-01T04:14:49.538Z,6.75
2018-12-01T04:15:49.496Z,6.95
2018-12-01T04:16:49.452Z,7.24
2018-12-01T04:17:49.411Z,7.24
2018-12-01T04:18:49.370Z,7.24
2018-12-01T04:19:49.327Z,7.04
2018-12-01T04:20:49.285Z,7.24
2018-12-01T04:21:49.242Z,7.04
2018-12-01T04:22:49.203Z,6.95
2018-12-01T04:23:49.209Z,6.65
2018-12-01T04:24:49.115Z,6.95
2018-12-01T04:25:49.074Z,6.85
2018-12-01T04:26:49.033Z,7.15
2018-12-01T04:27:48.992Z,6.95
2018-12-01T04:28:48.949Z,6.85
2018-12-01T04:29:48.906Z,6.76
2018-12-01T04:30:48.867Z,6.95
2018-12-01T04:31:48.828Z,6.76
2018-12-01T04:32:48.781Z,6.66
2018-12-01T04:33:48.738Z,6.66
2018-12-01T04:34:48.696Z,6.66
2018-12-01T04:35:48.656Z,6.85
2018-12-01T04:36:48.614Z,6.76
2018-12-01T04:37:48.571Z,6.95
2018-12-01T04:38:48.528Z,6.76
2018-12-01T04:39:48.489Z,6.85
2018-12-01T04:40:48.445Z,6.76
2018-12-01T04:41:48.403Z,6.76
2018-12-01T04:42:48.362Z,6.46
2018-12-01T04:43:48.320Z,6.85
2018-12-01T04:44:48.280Z,6.95
2018-12-01T04:45:48.236Z,6.85
2018-12-01T04:46:48.194Z,6.66
2018-12-01T04:47:48.204Z,6.76
2018-12-01T04:48:48.110Z,6.76
2018-12-01T04:49:48.069Z,6.85
2018-12-01T04:50:48.026Z,6.85
2018-12-01T04:51:47.985Z,6.76
2018-12-01T04:52:47.941Z,6.76
2018-12-01T04:53:47.902Z,6.76
2018-12-01T04:54:47.859Z,6.85
2018-12-01T04:55:47.818Z,6.76
2018-12-01T04:56:47.775Z,6.76
2018-12-01T04:57:47.734Z,6.76
2018-12-01T04:58:47.692Z,6.95
2018-12-01T04:59:47.650Z,6.66
2018-12-01T05:00:47.608Z,6.95
2018-12-01T05:01:47.566Z,6.95
2018-12-01T05:02:47.529Z,7.15
2018-12-01T05:03:47.481Z,6.76
2018-12-01T05:04:47.440Z,6.66
2018-12-01T05:05:47.398Z,6.66
2018-12-01T05:06:47.357Z,6.66
2018-12-01T05:07:47.316Z,6.95
2018-12-01T05:08:47.273Z,6.95
2018-12-01T05:09:47.231Z,6.95
2018-12-01T05:10:47.189Z,7.05
2018-12-01T05:11:47.147Z,6.85
2018-12-01T05:12:47.107Z,7.05
2018-12-01T05:13:47.063Z,6.76
2018-12-01T05:14:47.022Z,6.85
2018-12-01T05:15:46.980Z,6.85
2018-12-01T05:16:46.937Z,6.95
2018-12-01T05:17:46.895Z,6.95
2018-12-01T05:18:46.854Z,6.85
2018-12-01T05:19:46.813Z,6.85
2018-12-01T05:20:46.770Z,6.95
2018-12-01T05:21:46.729Z,6.85
2018-12-01T05:22:46.687Z,6.85
2018-12-01T05:23:46.645Z,6.76
2018-12-01T05:24:46.601Z,6.85
2018-12-01T05:25:46.561Z,6.85
2018-12-01T05:26:46.519Z,6.76
2018-12-01T05:27:46.477Z,6.85
2018-12-01T05:28:46.435Z,6.85
2018-12-01T05:29:46.392Z,6.95
2018-12-01T05:30:46.353Z,6.76
2018-12-01T05:31:46.310Z,6.76
2018-12-01T05:32:46.276Z,6.76
2018-12-01T05:33:46.226Z,6.95
2018-12-01T05:34:46.184Z,6.66
2018-12-01T05:35:46.142Z,6.76
2018-12-01T05:36:46.100Z,6.76
2018-12-01T05:37:46.061Z,6.76
2018-12-01T05:38:46.020Z,6.76
2018-12-01T05:39:45.976Z,6.85
2018-12-01T05:40:45.932Z,6.76
2018-12-01T05:41:45.890Z,6.85
2018-12-01T05:42:45.854Z,6.76
2018-12-01T05:43:45.807Z,6.66
2018-12-01T05:44:45.766Z,6.66
2018-12-01T05:45:45.723Z,6.66
2018-12-01T05:46:45.683Z,6.95
2018-12-01T05:47:45.638Z,6.95
2018-12-01T05:48:45.599Z,7.04
2018-12-01T05:49:45.558Z,7.24
2018-12-01T05:50:45.515Z,7.15
2018-12-01T05:51:45.472Z,7.14
2018-12-01T05:52:45.430Z,7.04
2018-12-01T05:53:45.387Z,7.04
2018-12-01T05:54:45.346Z,7.24
2018-12-01T05:55:45.303Z,6.95
2018-12-01T05:56:45.261Z,7.34
2018-12-01T05:57:45.219Z,7.34
2018-12-01T05:58:45.178Z,7.34
2018-12-01T05:59:45.137Z,7.24
2018-12-01T06:00:45.092Z,7.34
2018-12-01T06:01:45.052Z,7.54
2018-12-01T06:02:45.010Z,7.43
2018-12-01T06:03:44.969Z,7.34
2018-12-01T06:04:44.929Z,7.24
2018-12-01T06:05:44.883Z,7.43
2018-12-01T06:06:44.840Z,7.34
2018-12-01T06:07:44.802Z,7.34
2018-12-01T06:08:44.756Z,7.34
2018-12-01T06:09:44.715Z,7.34
2018-12-01T06:10:44.674Z,7.34
2018-12-01T06:11:44.632Z,7.34
2018-12-01T06:12:44.588Z,7.34
2018-12-01T06:13:44.547Z,7.73
2018-12-01T06:14:44.505Z,7.53
2018-12-01T06:15:44.463Z,7.43
2018-12-01T06:16:44.423Z,7.24
2018-12-01T06:17:44.389Z,7.63
2018-12-01T06:18:44.337Z,7.43
2018-12-01T06:19:44.295Z,7.43
2018-12-01T06:20:44.252Z,7.34
2018-12-01T06:21:44.210Z,7.24
2018-12-01T06:22:44.168Z,7.34
2018-12-01T06:23:44.126Z,7.24
2018-12-01T06:24:44.084Z,7.24
2018-12-01T06:25:44.043Z,7.24
2018-12-01T06:26:44.000Z,7.54
2018-12-01T06:27:43.958Z,7.43
2018-12-01T06:28:43.917Z,7.34
2018-12-01T06:29:43.873Z,7.54
2018-12-01T06:30:43.831Z,7.54
2018-12-01T06:31:43.790Z,7.54
2018-12-01T06:32:43.747Z,7.54
2018-12-01T06:33:43.708Z,7.34
2018-12-01T06:34:43.663Z,7.34
2018-12-01T06:35:43.621Z,7.24
2018-12-01T06:36:43.579Z,7.34
2018-12-01T06:37:43.537Z,7.24
2018-12-01T06:38:43.494Z,7.24
2018-12-01T06:39:43.453Z,7.24
2018-12-01T06:40:43.410Z,7.24
2018-12-01T06:41:43.367Z,7.05
2018-12-01T06:42:43.327Z,6.95
2018-12-01T06:43:43.285Z,7.05
2018-12-01T06:44:43.241Z,7.05
2018-12-01T06:45:43.200Z,7.15
2018-12-01T06:46:43.159Z,7.15
2018-12-01T06:47:43.123Z,7.04
2018-12-01T06:48:43.074Z,7.05
2018-12-01T06:49:43.032Z,6.95
2018-12-01T06:50:42.990Z,7.24
2018-12-01T06:51:42.949Z,7.43
2018-12-01T06:52:42.912Z,7.34
2018-12-01T06:53:42.864Z,7.54
2018-12-01T06:54:42.822Z,7.34
2018-12-01T06:55:42.781Z,7.24
2018-12-01T06:56:42.738Z,7.24
2018-12-01T06:57:42.697Z,7.24
2018-12-01T06:58:42.657Z,7.34
2018-12-01T06:59:42.612Z,7.24
2018-12-01T07:00:42.570Z,7.64
2018-12-01T07:01:42.849Z,7.83
2018-12-01T07:02:42.485Z,7.73
2018-12-01T07:03:42.444Z,7.73
2018-12-01T07:04:42.402Z,7.34
2018-12-01T07:05:42.359Z,7.63
2018-12-01T07:06:42.318Z,7.34
2018-12-01T07:07:42.277Z,7.73
2018-12-01T07:08:42.234Z,7.82
2018-12-01T07:09:42.192Z,7.53
2018-12-01T07:10:42.153Z,7.82
2018-12-01T07:11:42.107Z,7.72
2018-12-01T07:12:42.065Z,7.73
2018-12-01T07:13:42.023Z,7.82
2018-12-01T07:14:41.980Z,8.11
2018-12-01T07:15:41.938Z,8.01
2018-12-01T07:16:41.895Z,8.01
2018-12-01T07:17:41.855Z,8.21
2018-12-01T07:18:41.812Z,8.01
2018-12-01T07:19:41.770Z,7.82
2018-12-01T07:20:41.727Z,7.72
2018-12-01T07:21:41.684Z,7.72
2018-12-01T07:22:41.642Z,7.82
2018-12-01T07:23:41.601Z,7.82
2018-12-01T07:24:41.557Z,7.62
2018-12-01T07:25:41.514Z,8.61
2018-12-01T07:26:41.472Z,7.82
2018-12-01T07:27:41.431Z,8.31
2018-12-01T07:28:41.388Z,8.31
2018-12-01T07:29:41.347Z,8.31
2018-12-01T07:30:41.303Z,8.21
2018-12-01T07:31:41.261Z,8.31
2018-12-01T07:32:41.217Z,8.31
2018-12-01T07:33:41.175Z,8.11
2018-12-01T07:34:41.136Z,8.31
2018-12-01T07:35:41.092Z,8.31
2018-12-01T07:36:41.049Z,8.61
2018-12-01T07:37:41.056Z,7.82
2018-12-01T07:38:40.966Z,8.21
2018-12-01T07:39:40.921Z,7.92
2018-12-01T07:40:40.879Z,7.92
2018-12-01T07:41:40.836Z,7.72
2018-12-01T07:42:40.845Z,7.82
2018-12-01T07:43:40.754Z,7.82
2018-12-01T07:44:40.708Z,7.92
2018-12-01T07:45:40.666Z,7.72
2018-12-01T07:46:40.625Z,8.02
2018-12-01T07:47:40.583Z,8.11
2018-12-01T07:48:40.540Z,8.01
2018-12-01T07:49:40.498Z,8.02
2018-12-01T07:50:40.456Z,8.01
2018-12-01T07:51:40.414Z,8.21
2018-12-01T07:52:40.372Z,8.22
2018-12-01T07:53:40.333Z,8.12
2018-12-01T07:54:40.296Z,8.02
2018-12-01T07:55:40.246Z,8.02
2018-12-01T07:56:40.201Z,7.92
2018-12-01T07:57:40.160Z,8.12
2018-12-01T07:58:40.116Z,7.73
2018-12-01T07:59:40.075Z,7.73
2018-12-01T08:00:40.038Z,7.82
2018-12-01T08:01:39.989Z,7.73
2018-12-01T08:02:39.948Z,7.82
2018-12-01T08:03:39.905Z,7.82
2018-12-01T08:04:39.865Z,7.92
2018-12-01T08:05:39.820Z,7.73
2018-12-01T08:06:39.778Z,7.73
2018-12-01T08:07:39.769Z,7.82
2018-12-01T08:08:39.692Z,7.73
2018-12-01T08:09:39.650Z,7.53
2018-12-01T08:10:39.610Z,7.53
2018-12-01T08:11:39.568Z,7.43
2018-12-01T08:12:39.528Z,7.63
2018-12-01T08:13:39.483Z,7.53
2018-12-01T08:14:39.440Z,7.43
2018-12-01T08:15:39.398Z,7.53
2018-12-01T08:16:39.355Z,7.73
2018-12-01T08:17:39.313Z,7.82
2018-12-01T08:18:39.271Z,7.82
2018-12-01T08:19:39.230Z,7.73
2018-12-01T08:20:39.185Z,7.63
2018-12-01T08:21:39.144Z,7.73
2018-12-01T08:22:39.110Z,7.82
2018-12-01T08:23:39.061Z,8.02
2018-12-01T08:24:39.029Z,8.02
2018-12-01T08:25:38.975Z,8.01
2018-12-01T08:26:38.944Z,7.92
2018-12-01T08:27:38.893Z,7.82
2018-12-01T08:28:38.848Z,8.11
2018-12-01T08:29:38.807Z,8.31
2018-12-01T08:30:38.767Z,8.21
2018-12-01T08:31:38.772Z,7.92
2018-12-01T08:32:38.680Z,8.70
2018-12-01T08:33:38.638Z,8.40
2018-12-01T08:34:38.596Z,8.79
2018-12-01T08:35:38.553Z,8.69
2018-12-01T08:36:38.511Z,8.69
2018-12-01T08:37:38.466Z,9.08
2018-12-01T08:38:38.426Z,9.08
2018-12-01T08:39:38.384Z,8.89
2018-12-01T08:40:38.340Z,9.47
2018-12-01T08:41:38.299Z,9.38
2018-12-01T08:42:38.255Z,9.08
2018-12-01T08:43:38.222Z,9.17
2018-12-01T08:44:38.170Z,9.17
2018-12-01T08:45:38.126Z,9.37
2018-12-01T08:46:38.085Z,9.66
2018-12-01T08:47:38.043Z,9.66
2018-12-01T08:48:37.999Z,9.56
2018-12-01T08:49:37.956Z,9.56
2018-12-01T08:50:37.913Z,9.46
2018-12-01T08:51:37.872Z,9.84
2018-12-01T08:52:37.827Z,9.84
2018-12-01T08:53:37.784Z,9.94
2018-12-01T08:54:37.742Z,9.84
2018-12-01T08:55:37.700Z,9.75
2018-12-01T08:56:37.656Z,9.55
2018-12-01T08:57:37.614Z,10.24
2018-12-01T08:58:37.577Z,10.14
2018-12-01T08:59:37.533Z,10.52
2018-12-01T09:00:37.484Z,10.33
2018-12-01T09:01:37.440Z,10.62
2018-12-01T09:02:37.398Z,10.52
2018-12-01T09:03:37.355Z,10.33
2018-12-01T09:04:37.312Z,10.13
2018-12-01T09:05:37.269Z,10.33
2018-12-01T09:06:37.226Z,10.42
2018-12-01T09:07:37.183Z,10.42
2018-12-01T09:08:37.139Z,10.42
2018-12-01T09:09:37.096Z,10.62
2018-12-01T09:10:37.054Z,10.52
2018-12-01T09:11:37.009Z,10.91
2018-12-01T09:12:36.966Z,10.81
2018-12-01T09:13:36.928Z,11.00
2018-12-01T09:14:36.880Z,10.61
2018-12-01T09:15:37.096Z,10.61
2018-12-01T09:16:36.792Z,11.00
2018-12-01T09:17:36.749Z,10.81
2018-12-01T09:18:36.706Z,10.91
2018-12-01T09:19:36.662Z,11.00
2018-12-01T09:20:36.622Z,11.10
2018-12-01T09:21:36.576Z,11.29
2018-12-01T09:22:36.532Z,11.19
2018-12-01T09:23:36.539Z,11.39
2018-12-01T09:24:36.445Z,11.39
2018-12-01T09:25:36.400Z,11.29
2018-12-01T09:26:36.358Z,11.39
2018-12-01T09:27:36.315Z,11.39
2018-12-01T09:28:36.281Z,11.68
2018-12-01T09:29:36.226Z,11.48
2018-12-01T09:30:36.184Z,11.48
2018-12-01T09:31:36.140Z,11.77
2018-12-01T09:32:36.096Z,11.48
2018-12-01T09:33:36.103Z,11.58
2018-12-01T09:34:36.009Z,11.48
2018-12-01T09:35:35.966Z,11.97
2018-12-01T09:36:35.921Z,11.87
2018-12-01T09:37:35.876Z,11.87
2018-12-01T09:38:35.834Z,11.67
2018-12-01T09:39:35.792Z,12.06
2018-12-01T09:40:35.746Z,12.26
2018-12-01T09:41:35.703Z,12.26
2018-12-01T09:42:35.658Z,12.26
2018-12-01T09:43:35.615Z,12.35
2018-12-01T09:44:35.570Z,12.06
2018-12-01T09:45:35.527Z,11.96
2018-12-01T09:46:35.483Z,12.25
2018-12-01T09:47:35.440Z,12.26
2018-12-01T09:48:35.395Z,12.35
2018-12-01T09:49:35.359Z,12.54
2018-12-01T09:50:35.307Z,12.35
2018-12-01T09:51:35.264Z,12.35
2018-12-01T09:52:35.219Z,12.35
2018-12-01T09:53:35.177Z,12.63
2018-12-01T09:54:35.132Z,12.15
2018-12-01T09:55:35.088Z,12.35
2018-12-01T09:56:35.047Z,12.54
2018-12-01T09:57:35.000Z,12.45
2018-12-01T09:58:34.955Z,12.45
2018-12-01T09:59:34.914Z,12.83
2018-12-01T10:00:34.870Z,12.83
2018-12-01T10:01:34.822Z,12.73
2018-12-01T10:02:34.779Z,12.93
2018-12-01T10:03:34.736Z,12.92
2018-12-01T10:04:34.689Z,13.02
2018-12-01T10:05:34.649Z,13.02
2018-12-01T10:06:34.602Z,12.93
2018-12-01T10:07:34.560Z,12.82
2018-12-01T10:08:34.519Z,12.93
2018-12-01T10:09:34.470Z,13.31
2018-12-01T10:10:34.426Z,13.12
2018-12-01T10:11:34.382Z,13.12
2018-12-01T10:12:34.336Z,13.21
2018-12-01T10:13:34.295Z,13.21
2018-12-01T10:14:34.249Z,13.12
2018-12-01T10:15:34.205Z,13.12
2018-12-01T10:16:34.160Z,13.02
2018-12-01T10:17:34.116Z,13.02
2018-12-01T10:18:34.072Z,13.12
2018-12-01T10:19:34.028Z,13.12
2018-12-01T10:20:33.982Z,12.73
2018-12-01T10:21:33.939Z,13.21
2018-12-01T10:22:33.893Z,13.12
2018-12-01T10:23:33.851Z,13.02
2018-12-01T10:24:33.806Z,13.12
2018-12-01T10:25:33.765Z,13.12
2018-12-01T10:26:33.718Z,13.21
2018-12-01T10:27:33.672Z,13.12
2018-12-01T10:28:33.628Z,13.12
2018-12-01T10:29:34.019Z,13.21
2018-12-01T10:30:33.540Z,13.12
2018-12-01T10:31:33.496Z,13.21
2018-12-01T10:32:33.451Z,13.12
2018-12-01T10:33:33.407Z,13.21
2018-12-01T10:34:33.364Z,13.12
2018-12-01T10:35:33.332Z,13.21
2018-12-01T10:36:33.275Z,13.21
2018-12-01T10:37:33.230Z,13.12
2018-12-01T10:38:33.185Z,13.21
2018-12-01T10:39:33.140Z,13.12
2018-12-01T10:40:33.095Z,13.12
2018-12-01T10:41:33.051Z,13.12
2018-12-01T10:42:33.006Z,13.12
2018-12-01T10:43:32.963Z,13.12
2018-12-01T10:44:32.918Z,13.21
2018-12-01T10:45:32.875Z,13.12
2018-12-01T10:46:32.829Z,13.12
2018-12-01T10:47:32.785Z,13.21
2018-12-01T10:48:32.739Z,13.12
2018-12-01T10:49:32.695Z,13.12
2018-12-01T10:50:32.651Z,13.12
2018-12-01T10:51:32.606Z,13.12
2018-12-01T10:52:32.561Z,13.12
2018-12-01T10:53:32.518Z,13.12
2018-12-01T10:54:32.475Z,13.02
2018-12-01T10:55:32.429Z,12.83
2018-12-01T10:56:32.385Z,13.32
2018-12-01T10:57:32.340Z,13.12
2018-12-01T10:58:32.296Z,13.32
2018-12-01T10:59:32.251Z,12.93
2018-12-01T11:00:32.207Z,12.74
2018-12-01T11:01:32.162Z,12.84
2018-12-01T11:02:32.118Z,12.45
2018-12-01T11:03:32.074Z,12.64
2018-12-01T11:04:32.029Z,12.35
2018-12-01T11:05:31.985Z,12.54
2018-12-01T11:06:31.940Z,12.46
2018-12-01T11:07:31.897Z,12.36
2018-12-01T11:08:31.851Z,12.16
2018-12-01T11:09:31.811Z,11.97
2018-12-01T11:10:31.765Z,11.97
2018-12-01T11:11:31.720Z,12.17
2018-12-01T11:12:31.673Z,12.27
2018-12-01T11:13:31.629Z,12.27
2018-12-01T11:14:31.588Z,12.17
2018-12-01T11:15:31.542Z,11.68
2018-12-01T11:16:31.496Z,11.98
2018-12-01T11:17:31.453Z,11.78
2018-12-01T11:18:31.414Z,11.78
2018-12-01T11:19:31.365Z,11.39
2018-12-01T11:20:31.320Z,11.39
2018-12-01T11:21:31.279Z,11.49
2018-12-01T11:22:31.236Z,11.58
2018-12-01T11:23:31.191Z,11.49
2018-12-01T11:24:31.144Z,11.69
2018-12-01T11:25:31.103Z,11.68
2018-12-01T11:26:31.055Z,11.98
2018-12-01T11:27:31.012Z,11.98
2018-12-01T11:28:30.968Z,11.98
2018-12-01T11:29:30.924Z,11.88
2018-12-01T11:30:30.882Z,11.88
2018-12-01T11:31:30.837Z,12.07
2018-12-01T11:32:30.792Z,11.68
2018-12-01T11:33:30.748Z,12.27
2018-12-01T11:34:30.704Z,12.36
2018-12-01T11:35:30.660Z,12.26
2018-12-01T11:36:30.618Z,12.16
2018-12-01T11:37:30.575Z,12.07
2018-12-01T11:38:30.528Z,12.26
2018-12-01T11:39:30.485Z,11.97
2018-12-01T11:40:30.440Z,12.74
2018-12-01T11:41:30.396Z,12.54
2018-12-01T11:42:30.352Z,12.45
2018-12-01T11:43:30.308Z,12.35
2018-12-01T11:44:30.265Z,12.35
2018-12-01T11:45:30.220Z,12.35
2018-12-01T11:46:30.176Z,12.64
2018-12-01T11:47:30.133Z,12.74
2018-12-01T11:48:30.087Z,12.64
2018-12-01T11:49:30.043Z,12.84
2018-12-01T11:50:30.004Z,12.74
2018-12-01T11:51:29.961Z,12.93
2018-12-01T11:52:29.915Z,13.02
2018-12-01T11:53:29.868Z,13.02
2018-12-01T11:54:29.824Z,13.12
2018-12-01T11:55:29.787Z,13.02
2018-12-01T11:56:29.735Z,12.93
2018-12-01T11:57:29.692Z,13.12
2018-12-01T11:58:29.647Z,13.12
2018-12-01T11:59:29.602Z,13.22
2018-12-01T12:00:29.559Z,13.12
2018-12-01T12:01:29.513Z,13.12
2018-12-01T12:02:29.474Z,13.12
2018-12-01T12:03:29.426Z,13.21
2018-12-01T12:04:29.382Z,13.12
2018-12-01T12:05:29.392Z,13.51
2018-12-01T12:06:29.294Z,13.70
2018-12-01T12:07:29.251Z,13.51
2018-12-01T12:08:29.203Z,13.31
2018-12-01T12:09:29.161Z,13.60
2018-12-01T12:10:29.116Z,13.60
2018-12-01T12:11:29.071Z,13.70
2018-12-01T12:12:29.028Z,13.70
2018-12-01T12:13:28.983Z,13.41
2018-12-01T12:14:28.940Z,13.51
2018-12-01T12:15:28.895Z,13.51
2018-12-01T12:16:28.849Z,13.31
2018-12-01T12:17:28.805Z,13.41
2018-12-01T12:18:29.010Z,13.41
2018-12-01T12:19:28.718Z,13.41
2018-12-01T12:20:28.673Z,13.51
2018-12-01T12:21:28.635Z,13.70
2018-12-01T12:22:28.584Z,13.41
2018-12-01T12:23:28.541Z,13.41
2018-12-01T12:24:28.496Z,13.60
2018-12-01T12:25:28.451Z,13.60
2018-12-01T12:26:28.407Z,13.60
2018-12-01T12:27:28.364Z,13.60
2018-12-01T12:28:28.321Z,13.41
2018-12-01T12:29:28.274Z,13.70
2018-12-01T12:30:28.229Z,13.51
2018-12-01T12:31:28.184Z,13.60
2018-12-01T12:32:28.140Z,14.09
2018-12-01T12:33:28.103Z,13.60
2018-12-01T12:34:28.052Z,13.51
2018-12-01T12:35:28.007Z,13.51
2018-12-01T12:36:27.966Z,13.60
2018-12-01T12:37:27.917Z,13.89
2018-12-01T12:38:27.875Z,13.60
2018-12-01T12:39:27.829Z,13.89
2018-12-01T12:40:27.787Z,13.79
2018-12-01T12:41:27.740Z,13.79
2018-12-01T12:42:27.699Z,13.79
2018-12-01T12:43:27.652Z,13.89
2018-12-01T12:44:27.607Z,13.79
2018-12-01T12:45:27.563Z,13.79
2018-12-01T12:46:27.520Z,13.89
2018-12-01T12:47:27.473Z,13.89
2018-12-01T12:48:27.428Z,13.89
2018-12-01T12:49:27.385Z,13.79
2018-12-01T12:50:27.340Z,13.89
2018-12-01T12:51:27.297Z,13.79
2018-12-01T12:52:27.251Z,13.79
2018-12-01T12:53:27.206Z,13.79
2018-12-01T12:54:27.163Z,13.99
2018-12-01T12:55:27.118Z,13.89
2018-12-01T12:56:27.072Z,13.89
2018-12-01T12:57:27.029Z,13.89
2018-12-01T12:58:26.984Z,13.79
2018-12-01T12:59:26.941Z,13.70
2018-12-01T13:00:26.894Z,13.51
2018-12-01T13:01:26.857Z,13.60
2018-12-01T13:02:26.807Z,13.51
2018-12-01T13:03:26.763Z,13.61
2018-12-01T13:04:26.720Z,13.70
2018-12-01T13:05:26.673Z,13.61
2018-12-01T13:06:26.629Z,13.51
2018-12-01T13:07:26.584Z,13.42
2018-12-01T13:08:26.540Z,13.71
2018-12-01T13:09:26.495Z,13.71